sensor_id;sensor_type;location;lat;lon;timestamp;temperature;humidity
68433;DHT22;55412;51.350;17.056;2022-08-21T00:00:44;20.50;84.90
68433;DHT22;55412;51.350;17.056;2022-08-21T00:03:11;20.50;84.80
68433;DHT22;55412;51.350;17.056;2022-08-21T00:05:47;20.40;84.90
68433;DHT22;55412;51.350;17.056;2022-08-21T00:08:19;20.40;84.80
68433;DHT22;55412;51.350;17.056;2022-08-21T00:10:46;20.40;84.80
68433;DHT22;55412;51.350;17.056;2022-08-21T00:13:13;20.40;84.80
68433;DHT22;55412;51.350;17.056;2022-08-21T00:15:41;20.40;85.10
68433;DHT22;55412;51.350;17.056;2022-08-21T00:18:08;20.40;85.10
68433;DHT22;55412;51.350;17.056;2022-08-21T00:20:37;20.40;85.20
68433;DHT22;55412;51.350;17.056;2022-08-21T00:23:04;20.30;85.20
68433;DHT22;55412;51.350;17.056;2022-08-21T00:25:30;20.30;85.30
68433;DHT22;55412;51.350;17.056;2022-08-21T00:27:57;20.30;85.30
68433;DHT22;55412;51.350;17.056;2022-08-21T00:30:26;20.30;85.20
68433;DHT22;55412;51.350;17.056;2022-08-21T00:32:54;20.30;85.30
68433;DHT22;55412;51.350;17.056;2022-08-21T00:35:26;20.20;85.40
68433;DHT22;55412;51.350;17.056;2022-08-21T00:37:54;20.20;85.30
68433;DHT22;55412;51.350;17.056;2022-08-21T00:40:34;20.10;85.10
68433;DHT22;55412;51.350;17.056;2022-08-21T00:43:19;20.10;85.10
68433;DHT22;55412;51.350;17.056;2022-08-21T00:45:47;20.10;85.20
68433;DHT22;55412;51.350;17.056;2022-08-21T00:48:14;20.10;85.10
68433;DHT22;55412;51.350;17.056;2022-08-21T00:50:44;20.00;85.30
68433;DHT22;55412;51.350;17.056;2022-08-21T00:53:16;20.00;85.20
68433;DHT22;55412;51.350;17.056;2022-08-21T00:55:43;20.00;85.40
68433;DHT22;55412;51.350;17.056;2022-08-21T00:58:13;20.00;85.70
68433;DHT22;55412;51.350;17.056;2022-08-21T01:00:42;20.00;85.70
68433;DHT22;55412;51.350;17.056;2022-08-21T01:03:13;20.00;85.30
68433;DHT22;55412;51.350;17.056;2022-08-21T01:05:42;20.00;85.30
68433;DHT22;55412;51.350;17.056;2022-08-21T01:08:09;19.90;85.50
68433;DHT22;55412;51.350;17.056;2022-08-21T01:10:37;19.90;85.50
68433;DHT22;55412;51.350;17.056;2022-08-21T01:13:05;19.90;85.30
68433;DHT22;55412;51.350;17.056;2022-08-21T01:15:35;19.90;85.20
68433;DHT22;55412;51.350;17.056;2022-08-21T01:18:06;19.80;85.20
68433;DHT22;55412;51.350;17.056;2022-08-21T01:20:34;19.80;85.40
68433;DHT22;55412;51.350;17.056;2022-08-21T01:23:02;19.70;85.60
68433;DHT22;55412;51.350;17.056;2022-08-21T01:25:30;19.70;85.80
68433;DHT22;55412;51.350;17.056;2022-08-21T01:28:00;19.70;86.10
68433;DHT22;55412;51.350;17.056;2022-08-21T01:30:28;19.70;85.60
68433;DHT22;55412;51.350;17.056;2022-08-21T01:32:55;19.70;85.50
68433;DHT22;55412;51.350;17.056;2022-08-21T01:35:22;19.60;85.50
68433;DHT22;55412;51.350;17.056;2022-08-21T01:37:48;19.60;85.40
68433;DHT22;55412;51.350;17.056;2022-08-21T01:40:16;19.50;85.40
68433;DHT22;55412;51.350;17.056;2022-08-21T01:42:44;19.60;85.60
68433;DHT22;55412;51.350;17.056;2022-08-21T01:45:11;19.50;85.60
68433;DHT22;55412;51.350;17.056;2022-08-21T01:47:39;19.50;85.90
68433;DHT22;55412;51.350;17.056;2022-08-21T01:50:09;19.50;85.60
68433;DHT22;55412;51.350;17.056;2022-08-21T01:52:39;19.40;85.70
68433;DHT22;55412;51.350;17.056;2022-08-21T01:55:08;19.40;86.00
68433;DHT22;55412;51.350;17.056;2022-08-21T01:57:36;19.40;86.00
68433;DHT22;55412;51.350;17.056;2022-08-21T02:00:05;19.30;86.00
68433;DHT22;55412;51.350;17.056;2022-08-21T02:02:34;19.30;86.20
68433;DHT22;55412;51.350;17.056;2022-08-21T02:05:00;19.30;86.20
68433;DHT22;55412;51.350;17.056;2022-08-21T02:07:26;19.30;86.20
68433;DHT22;55412;51.350;17.056;2022-08-21T02:09:52;19.30;86.20
68433;DHT22;55412;51.350;17.056;2022-08-21T02:12:18;19.30;86.40
68433;DHT22;55412;51.350;17.056;2022-08-21T02:14:44;19.20;86.70
68433;DHT22;55412;51.350;17.056;2022-08-21T02:17:10;19.20;86.50
68433;DHT22;55412;51.350;17.056;2022-08-21T02:19:37;19.10;86.80
68433;DHT22;55412;51.350;17.056;2022-08-21T02:22:03;19.10;87.30
68433;DHT22;55412;51.350;17.056;2022-08-21T02:24:29;19.10;87.10
68433;DHT22;55412;51.350;17.056;2022-08-21T02:26:55;19.10;87.20
68433;DHT22;55412;51.350;17.056;2022-08-21T02:29:21;19.10;87.20
68433;DHT22;55412;51.350;17.056;2022-08-21T02:31:48;19.00;87.30
68433;DHT22;55412;51.350;17.056;2022-08-21T02:34:14;19.00;87.20
68433;DHT22;55412;51.350;17.056;2022-08-21T02:36:40;19.00;87.10
68433;DHT22;55412;51.350;17.056;2022-08-21T02:39:06;18.90;87.10
68433;DHT22;55412;51.350;17.056;2022-08-21T02:41:32;19.00;87.20
68433;DHT22;55412;51.350;17.056;2022-08-21T02:43:58;19.00;87.00
68433;DHT22;55412;51.350;17.056;2022-08-21T02:46:24;19.00;87.10
68433;DHT22;55412;51.350;17.056;2022-08-21T02:48:50;18.90;87.00
68433;DHT22;55412;51.350;17.056;2022-08-21T02:51:19;18.90;87.10
68433;DHT22;55412;51.350;17.056;2022-08-21T02:53:46;18.90;87.20
68433;DHT22;55412;51.350;17.056;2022-08-21T02:56:16;18.80;87.40
68433;DHT22;55412;51.350;17.056;2022-08-21T02:58:51;18.80;87.40
68433;DHT22;55412;51.350;17.056;2022-08-21T03:01:18;18.80;87.70
68433;DHT22;55412;51.350;17.056;2022-08-21T03:03:46;18.70;87.40
68433;DHT22;55412;51.350;17.056;2022-08-21T03:06:16;18.70;87.40
68433;DHT22;55412;51.350;17.056;2022-08-21T03:08:44;18.70;87.50
68433;DHT22;55412;51.350;17.056;2022-08-21T03:11:12;18.70;87.30
68433;DHT22;55412;51.350;17.056;2022-08-21T03:13:39;18.70;87.50
68433;DHT22;55412;51.350;17.056;2022-08-21T03:16:05;18.80;87.30
68433;DHT22;55412;51.350;17.056;2022-08-21T03:18:32;18.80;87.20
68433;DHT22;55412;51.350;17.056;2022-08-21T03:20:58;18.80;87.20
68433;DHT22;55412;51.350;17.056;2022-08-21T03:23:24;18.80;86.80
68433;DHT22;55412;51.350;17.056;2022-08-21T03:25:50;18.80;86.90
68433;DHT22;55412;51.350;17.056;2022-08-21T03:28:19;18.80;87.10
68433;DHT22;55412;51.350;17.056;2022-08-21T03:30:48;18.80;87.00
68433;DHT22;55412;51.350;17.056;2022-08-21T03:33:16;18.80;86.90
68433;DHT22;55412;51.350;17.056;2022-08-21T03:35:45;18.80;86.80
68433;DHT22;55412;51.350;17.056;2022-08-21T03:38:14;18.80;86.90
68433;DHT22;55412;51.350;17.056;2022-08-21T03:40:42;18.80;86.70
68433;DHT22;55412;51.350;17.056;2022-08-21T03:43:08;18.80;86.50
68433;DHT22;55412;51.350;17.056;2022-08-21T03:45:35;18.90;86.20
68433;DHT22;55412;51.350;17.056;2022-08-21T03:48:04;18.80;86.20
68433;DHT22;55412;51.350;17.056;2022-08-21T03:50:33;18.90;86.30
68433;DHT22;55412;51.350;17.056;2022-08-21T03:53:01;18.90;86.00
68433;DHT22;55412;51.350;17.056;2022-08-21T03:55:27;18.90;85.90
68433;DHT22;55412;51.350;17.056;2022-08-21T03:57:53;18.90;85.70
68433;DHT22;55412;51.350;17.056;2022-08-21T04:00:20;18.90;85.40
68433;DHT22;55412;51.350;17.056;2022-08-21T04:02:47;18.90;85.70
68433;DHT22;55412;51.350;17.056;2022-08-21T04:05:17;18.90;85.60
68433;DHT22;55412;51.350;17.056;2022-08-21T04:08:02;18.90;85.60
68433;DHT22;55412;51.350;17.056;2022-08-21T04:10:31;18.90;85.60
68433;DHT22;55412;51.350;17.056;2022-08-21T04:13:00;18.90;85.60
68433;DHT22;55412;51.350;17.056;2022-08-21T04:15:27;18.90;85.50
68433;DHT22;55412;51.350;17.056;2022-08-21T04:17:53;18.90;85.60
68433;DHT22;55412;51.350;17.056;2022-08-21T04:20:21;18.90;85.70
68433;DHT22;55412;51.350;17.056;2022-08-21T04:22:49;18.90;85.70
68433;DHT22;55412;51.350;17.056;2022-08-21T04:25:16;18.90;85.70
68433;DHT22;55412;51.350;17.056;2022-08-21T04:27:44;18.90;85.80
68433;DHT22;55412;51.350;17.056;2022-08-21T04:30:11;18.90;85.70
68433;DHT22;55412;51.350;17.056;2022-08-21T04:32:41;18.90;85.80
68433;DHT22;55412;51.350;17.056;2022-08-21T04:35:10;18.90;85.70
68433;DHT22;55412;51.350;17.056;2022-08-21T04:37:37;18.90;85.70
68433;DHT22;55412;51.350;17.056;2022-08-21T04:40:04;19.00;85.70
68433;DHT22;55412;51.350;17.056;2022-08-21T04:42:32;19.00;85.60
68433;DHT22;55412;51.350;17.056;2022-08-21T04:44:58;19.00;85.50
68433;DHT22;55412;51.350;17.056;2022-08-21T04:47:25;19.00;85.60
68433;DHT22;55412;51.350;17.056;2022-08-21T04:49:52;19.00;85.40
68433;DHT22;55412;51.350;17.056;2022-08-21T04:52:20;19.00;85.60
68433;DHT22;55412;51.350;17.056;2022-08-21T04:54:48;19.00;85.30
68433;DHT22;55412;51.350;17.056;2022-08-21T04:57:17;19.00;85.20
68433;DHT22;55412;51.350;17.056;2022-08-21T04:59:47;19.00;85.10
68433;DHT22;55412;51.350;17.056;2022-08-21T05:02:14;19.00;85.00
68433;DHT22;55412;51.350;17.056;2022-08-21T05:04:50;19.00;84.80
68433;DHT22;55412;51.350;17.056;2022-08-21T05:07:20;19.00;84.70
68433;DHT22;55412;51.350;17.056;2022-08-21T05:09:49;19.00;84.70
68433;DHT22;55412;51.350;17.056;2022-08-21T05:12:15;18.90;84.50
68433;DHT22;55412;51.350;17.056;2022-08-21T05:14:42;18.90;84.30
68433;DHT22;55412;51.350;17.056;2022-08-21T05:17:09;18.90;84.40
68433;DHT22;55412;51.350;17.056;2022-08-21T05:19:35;18.90;84.50
68433;DHT22;55412;51.350;17.056;2022-08-21T05:22:02;18.80;84.60
68433;DHT22;55412;51.350;17.056;2022-08-21T05:24:28;18.80;84.60
68433;DHT22;55412;51.350;17.056;2022-08-21T05:26:54;18.90;84.80
68433;DHT22;55412;51.350;17.056;2022-08-21T05:29:21;18.80;84.90
68433;DHT22;55412;51.350;17.056;2022-08-21T05:31:47;18.80;84.60
68433;DHT22;55412;51.350;17.056;2022-08-21T05:34:17;18.90;84.90
68433;DHT22;55412;51.350;17.056;2022-08-21T05:36:47;18.90;84.90
68433;DHT22;55412;51.350;17.056;2022-08-21T05:39:14;18.80;84.90
68433;DHT22;55412;51.350;17.056;2022-08-21T05:41:41;18.80;85.10
68433;DHT22;55412;51.350;17.056;2022-08-21T05:44:07;18.90;85.20
68433;DHT22;55412;51.350;17.056;2022-08-21T05:46:33;18.80;85.40
68433;DHT22;55412;51.350;17.056;2022-08-21T05:48:59;18.80;85.40
68433;DHT22;55412;51.350;17.056;2022-08-21T05:51:25;18.80;85.60
68433;DHT22;55412;51.350;17.056;2022-08-21T05:53:51;18.80;85.60
68433;DHT22;55412;51.350;17.056;2022-08-21T05:56:17;18.80;85.50
68433;DHT22;55412;51.350;17.056;2022-08-21T05:58:43;18.80;85.40
68433;DHT22;55412;51.350;17.056;2022-08-21T06:01:10;18.80;85.30
68433;DHT22;55412;51.350;17.056;2022-08-21T06:03:39;18.80;85.40
68433;DHT22;55412;51.350;17.056;2022-08-21T06:06:06;18.80;85.20
68433;DHT22;55412;51.350;17.056;2022-08-21T06:08:33;18.80;85.20
68433;DHT22;55412;51.350;17.056;2022-08-21T06:11:00;18.80;85.00
68433;DHT22;55412;51.350;17.056;2022-08-21T06:13:28;18.80;85.10
68433;DHT22;55412;51.350;17.056;2022-08-21T06:16:04;18.80;85.30
68433;DHT22;55412;51.350;17.056;2022-08-21T06:18:32;18.80;85.30
68433;DHT22;55412;51.350;17.056;2022-08-21T06:20:58;18.80;85.10
68433;DHT22;55412;51.350;17.056;2022-08-21T06:23:24;18.70;85.40
68433;DHT22;55412;51.350;17.056;2022-08-21T06:25:50;18.80;85.40
68433;DHT22;55412;51.350;17.056;2022-08-21T06:28:16;18.80;85.70
68433;DHT22;55412;51.350;17.056;2022-08-21T06:30:42;18.80;85.70
68433;DHT22;55412;51.350;17.056;2022-08-21T06:33:09;18.80;85.60
68433;DHT22;55412;51.350;17.056;2022-08-21T06:35:36;18.70;85.70
68433;DHT22;55412;51.350;17.056;2022-08-21T06:38:03;18.70;85.20
68433;DHT22;55412;51.350;17.056;2022-08-21T06:40:29;18.60;84.60
68433;DHT22;55412;51.350;17.056;2022-08-21T06:42:57;18.60;83.20
68433;DHT22;55412;51.350;17.056;2022-08-21T06:45:24;18.60;82.40
68433;DHT22;55412;51.350;17.056;2022-08-21T06:47:50;18.60;81.50
68433;DHT22;55412;51.350;17.056;2022-08-21T06:50:16;18.50;81.10
68433;DHT22;55412;51.350;17.056;2022-08-21T06:52:42;18.40;80.80
68433;DHT22;55412;51.350;17.056;2022-08-21T06:55:09;18.40;81.10
68433;DHT22;55412;51.350;17.056;2022-08-21T06:57:36;18.30;81.50
68433;DHT22;55412;51.350;17.056;2022-08-21T07:00:05;18.20;82.20
68433;DHT22;55412;51.350;17.056;2022-08-21T07:02:32;18.20;82.40
68433;DHT22;55412;51.350;17.056;2022-08-21T07:04:59;18.10;82.80
68433;DHT22;55412;51.350;17.056;2022-08-21T07:07:25;18.10;83.10
68433;DHT22;55412;51.350;17.056;2022-08-21T07:09:51;18.10;83.40
68433;DHT22;55412;51.350;17.056;2022-08-21T07:12:17;18.10;83.70
68433;DHT22;55412;51.350;17.056;2022-08-21T07:14:44;18.10;83.80
68433;DHT22;55412;51.350;17.056;2022-08-21T07:17:10;18.00;84.10
68433;DHT22;55412;51.350;17.056;2022-08-21T07:19:36;18.00;84.30
68433;DHT22;55412;51.350;17.056;2022-08-21T07:22:02;18.00;84.10
68433;DHT22;55412;51.350;17.056;2022-08-21T07:24:29;18.00;83.30
68433;DHT22;55412;51.350;17.056;2022-08-21T07:26:55;17.90;82.40
68433;DHT22;55412;51.350;17.056;2022-08-21T07:29:21;17.80;81.10
68433;DHT22;55412;51.350;17.056;2022-08-21T07:31:47;17.70;80.90
68433;DHT22;55412;51.350;17.056;2022-08-21T07:34:14;17.60;81.00
68433;DHT22;55412;51.350;17.056;2022-08-21T07:36:40;17.50;80.80
68433;DHT22;55412;51.350;17.056;2022-08-21T07:39:06;17.40;81.10
68433;DHT22;55412;51.350;17.056;2022-08-21T07:41:33;17.30;80.50
68433;DHT22;55412;51.350;17.056;2022-08-21T07:44:01;17.20;81.30
68433;DHT22;55412;51.350;17.056;2022-08-21T07:46:27;17.20;81.40
68433;DHT22;55412;51.350;17.056;2022-08-21T07:48:54;17.10;81.30
68433;DHT22;55412;51.350;17.056;2022-08-21T07:51:24;17.00;81.70
68433;DHT22;55412;51.350;17.056;2022-08-21T07:53:53;16.90;82.30
68433;DHT22;55412;51.350;17.056;2022-08-21T07:56:21;16.90;82.30
68433;DHT22;55412;51.350;17.056;2022-08-21T07:58:47;16.80;83.00
68433;DHT22;55412;51.350;17.056;2022-08-21T08:01:14;16.70;83.10
68433;DHT22;55412;51.350;17.056;2022-08-21T08:03:40;16.70;83.70
68433;DHT22;55412;51.350;17.056;2022-08-21T08:06:07;16.60;83.90
68433;DHT22;55412;51.350;17.056;2022-08-21T08:08:38;16.60;84.30
68433;DHT22;55412;51.350;17.056;2022-08-21T08:11:06;16.60;84.20
68433;DHT22;55412;51.350;17.056;2022-08-21T08:13:45;16.60;84.20
68433;DHT22;55412;51.350;17.056;2022-08-21T08:16:13;16.50;84.30
68433;DHT22;55412;51.350;17.056;2022-08-21T08:18:39;16.50;84.50
68433;DHT22;55412;51.350;17.056;2022-08-21T08:21:08;16.50;84.70
68433;DHT22;55412;51.350;17.056;2022-08-21T08:23:35;16.50;84.90
68433;DHT22;55412;51.350;17.056;2022-08-21T08:26:01;16.40;84.70
68433;DHT22;55412;51.350;17.056;2022-08-21T08:28:29;16.40;84.80
68433;DHT22;55412;51.350;17.056;2022-08-21T08:30:57;16.40;85.00
68433;DHT22;55412;51.350;17.056;2022-08-21T08:33:24;16.40;85.10
68433;DHT22;55412;51.350;17.056;2022-08-21T08:35:51;16.30;85.00
68433;DHT22;55412;51.350;17.056;2022-08-21T08:38:19;16.30;85.30
68433;DHT22;55412;51.350;17.056;2022-08-21T08:43:55;16.30;85.90
68433;DHT22;55412;51.350;17.056;2022-08-21T08:46:33;16.30;85.90
68433;DHT22;55412;51.350;17.056;2022-08-21T08:49:09;16.30;86.10
68433;DHT22;55412;51.350;17.056;2022-08-21T08:51:50;16.40;86.00
68433;DHT22;55412;51.350;17.056;2022-08-21T08:54:36;16.40;86.10
68433;DHT22;55412;51.350;17.056;2022-08-21T08:57:22;16.40;86.30
68433;DHT22;55412;51.350;17.056;2022-08-21T08:59:58;16.40;86.40
68433;DHT22;55412;51.350;17.056;2022-08-21T09:02:27;16.40;86.40
68433;DHT22;55412;51.350;17.056;2022-08-21T09:04:54;16.40;86.40
68433;DHT22;55412;51.350;17.056;2022-08-21T09:10:53;16.50;87.10
68433;DHT22;55412;51.350;17.056;2022-08-21T09:13:42;16.50;86.70
68433;DHT22;55412;51.350;17.056;2022-08-21T09:17:09;16.60;86.60
68433;DHT22;55412;51.350;17.056;2022-08-21T09:19:42;16.60;86.70
68433;DHT22;55412;51.350;17.056;2022-08-21T09:25:17;16.60;86.80
68433;DHT22;55412;51.350;17.056;2022-08-21T09:27:46;16.60;86.70
68433;DHT22;55412;51.350;17.056;2022-08-21T09:30:12;16.60;86.80
68433;DHT22;55412;51.350;17.056;2022-08-21T09:32:39;16.70;86.70
68433;DHT22;55412;51.350;17.056;2022-08-21T09:35:13;16.70;86.50
68433;DHT22;55412;51.350;17.056;2022-08-21T09:37:58;16.70;86.00
68433;DHT22;55412;51.350;17.056;2022-08-21T09:45:41;16.70;85.40
68433;DHT22;55412;51.350;17.056;2022-08-21T09:48:19;16.70;86.00
68433;DHT22;55412;51.350;17.056;2022-08-21T09:50:49;16.70;86.00
68433;DHT22;55412;51.350;17.056;2022-08-21T09:53:27;16.70;85.20
68433;DHT22;55412;51.350;17.056;2022-08-21T09:55:58;16.70;84.90
68433;DHT22;55412;51.350;17.056;2022-08-21T09:59:13;16.70;84.30
68433;DHT22;55412;51.350;17.056;2022-08-21T10:01:46;16.60;83.80
68433;DHT22;55412;51.350;17.056;2022-08-21T10:04:23;16.60;83.70
68433;DHT22;55412;51.350;17.056;2022-08-21T10:06:53;16.60;83.00
68433;DHT22;55412;51.350;17.056;2022-08-21T10:09:20;16.50;83.00
68433;DHT22;55412;51.350;17.056;2022-08-21T10:11:59;16.40;83.30
68433;DHT22;55412;51.350;17.056;2022-08-21T10:17:50;16.40;83.70
68433;DHT22;55412;51.350;17.056;2022-08-21T10:20:25;16.40;83.80
68433;DHT22;55412;51.350;17.056;2022-08-21T10:29:35;16.30;83.90
68433;DHT22;55412;51.350;17.056;2022-08-21T10:35:00;16.20;84.50
68433;DHT22;55412;51.350;17.056;2022-08-21T10:37:57;16.20;84.80
68433;DHT22;55412;51.350;17.056;2022-08-21T10:55:23;16.30;84.50
68433;DHT22;55412;51.350;17.056;2022-08-21T10:57:59;16.30;84.30
68433;DHT22;55412;51.350;17.056;2022-08-21T11:00:49;16.30;84.40
68433;DHT22;55412;51.350;17.056;2022-08-21T11:06:18;16.30;84.40
68433;DHT22;55412;51.350;17.056;2022-08-21T11:08:51;16.30;84.40
68433;DHT22;55412;51.350;17.056;2022-08-21T11:11:34;16.30;84.20
68433;DHT22;55412;51.350;17.056;2022-08-21T11:14:24;16.40;84.60
68433;DHT22;55412;51.350;17.056;2022-08-21T11:17:02;16.40;84.90
68433;DHT22;55412;51.350;17.056;2022-08-21T11:20:08;16.40;84.60
68433;DHT22;55412;51.350;17.056;2022-08-21T11:22:56;16.50;84.90
68433;DHT22;55412;51.350;17.056;2022-08-21T11:25:40;16.50;85.10
68433;DHT22;55412;51.350;17.056;2022-08-21T11:28:15;16.50;85.20
68433;DHT22;55412;51.350;17.056;2022-08-21T11:31:02;16.60;85.10
68433;DHT22;55412;51.350;17.056;2022-08-21T11:34:28;16.60;85.20
68433;DHT22;55412;51.350;17.056;2022-08-21T11:37:35;16.70;85.40
68433;DHT22;55412;51.350;17.056;2022-08-21T11:45:55;16.70;84.40
68433;DHT22;55412;51.350;17.056;2022-08-21T11:51:30;16.80;85.20
68433;DHT22;55412;51.350;17.056;2022-08-21T11:55:03;16.80;84.80
68433;DHT22;55412;51.350;17.056;2022-08-21T11:57:51;16.80;84.10
68433;DHT22;55412;51.350;17.056;2022-08-21T12:01:15;16.80;83.90
68433;DHT22;55412;51.350;17.056;2022-08-21T12:03:28;16.80;84.30
68433;DHT22;55412;51.350;17.056;2022-08-21T12:08:37;16.80;83.40
68433;DHT22;55412;51.350;17.056;2022-08-21T12:16:37;16.70;81.50
68433;DHT22;55412;51.350;17.056;2022-08-21T12:21:54;16.70;82.30
68433;DHT22;55412;51.350;17.056;2022-08-21T12:24:36;16.70;82.30
68433;DHT22;55412;51.350;17.056;2022-08-21T12:27:26;16.70;82.70
68433;DHT22;55412;51.350;17.056;2022-08-21T12:30:05;16.70;83.10
68433;DHT22;55412;51.350;17.056;2022-08-21T12:32:46;16.70;83.20
68433;DHT22;55412;51.350;17.056;2022-08-21T12:35:40;16.70;83.30
68433;DHT22;55412;51.350;17.056;2022-08-21T12:38:21;16.80;83.70
68433;DHT22;55412;51.350;17.056;2022-08-21T12:40:57;16.80;83.70
68433;DHT22;55412;51.350;17.056;2022-08-21T12:43:33;16.80;83.80
68433;DHT22;55412;51.350;17.056;2022-08-21T12:46:01;16.90;83.60
68433;DHT22;55412;51.350;17.056;2022-08-21T12:48:43;16.90;83.90
68433;DHT22;55412;51.350;17.056;2022-08-21T12:51:16;17.00;83.90
68433;DHT22;55412;51.350;17.056;2022-08-21T12:53:45;17.00;84.10
68433;DHT22;55412;51.350;17.056;2022-08-21T12:56:18;17.00;84.20
68433;DHT22;55412;51.350;17.056;2022-08-21T12:58:52;17.00;84.60
68433;DHT22;55412;51.350;17.056;2022-08-21T13:01:31;17.10;84.40
68433;DHT22;55412;51.350;17.056;2022-08-21T13:04:08;17.10;84.30
68433;DHT22;55412;51.350;17.056;2022-08-21T13:06:47;17.20;84.50
68433;DHT22;55412;51.350;17.056;2022-08-21T13:09:20;17.20;84.30
68433;DHT22;55412;51.350;17.056;2022-08-21T13:11:52;17.30;83.90
68433;DHT22;55412;51.350;17.056;2022-08-21T13:14:38;17.30;83.90
68433;DHT22;55412;51.350;17.056;2022-08-21T13:17:05;17.40;84.00
68433;DHT22;55412;51.350;17.056;2022-08-21T13:19:33;17.40;84.10
68433;DHT22;55412;51.350;17.056;2022-08-21T13:22:00;17.40;83.80
68433;DHT22;55412;51.350;17.056;2022-08-21T13:24:34;17.40;83.80
68433;DHT22;55412;51.350;17.056;2022-08-21T13:27:01;17.50;83.70
68433;DHT22;55412;51.350;17.056;2022-08-21T13:29:31;17.50;83.80
68433;DHT22;55412;51.350;17.056;2022-08-21T13:32:04;17.50;84.00
68433;DHT22;55412;51.350;17.056;2022-08-21T13:34:37;17.50;84.00
68433;DHT22;55412;51.350;17.056;2022-08-21T13:37:06;17.50;84.20
68433;DHT22;55412;51.350;17.056;2022-08-21T13:39:35;17.50;84.30
68433;DHT22;55412;51.350;17.056;2022-08-21T13:42:04;17.50;84.20
68433;DHT22;55412;51.350;17.056;2022-08-21T13:44:40;17.50;84.50
68433;DHT22;55412;51.350;17.056;2022-08-21T13:47:11;17.50;84.40
68433;DHT22;55412;51.350;17.056;2022-08-21T13:49:42;17.60;84.60
68433;DHT22;55412;51.350;17.056;2022-08-21T13:52:44;17.70;84.30
68433;DHT22;55412;51.350;17.056;2022-08-21T13:55:16;17.70;83.90
68433;DHT22;55412;51.350;17.056;2022-08-21T13:57:42;17.70;83.70
68433;DHT22;55412;51.350;17.056;2022-08-21T14:02:52;17.70;84.00
68433;DHT22;55412;51.350;17.056;2022-08-21T14:05:24;17.70;84.00
68433;DHT22;55412;51.350;17.056;2022-08-21T14:08:47;17.70;83.90
68433;DHT22;55412;51.350;17.056;2022-08-21T14:10:53;17.80;84.10
68433;DHT22;55412;51.350;17.056;2022-08-21T14:16:28;17.80;84.40
68433;DHT22;55412;51.350;17.056;2022-08-21T14:19:34;17.90;84.50
68433;DHT22;55412;51.350;17.056;2022-08-21T14:22:32;18.00;84.20
68433;DHT22;55412;51.350;17.056;2022-08-21T14:27:57;18.10;83.70
68433;DHT22;55412;51.350;17.056;2022-08-21T14:30:34;18.20;83.50
68433;DHT22;55412;51.350;17.056;2022-08-21T14:33:04;18.10;83.20
68433;DHT22;55412;51.350;17.056;2022-08-21T14:35:33;18.20;83.40
68433;DHT22;55412;51.350;17.056;2022-08-21T14:37:59;18.20;83.00
68433;DHT22;55412;51.350;17.056;2022-08-21T14:40:25;18.20;82.90
68433;DHT22;55412;51.350;17.056;2022-08-21T14:42:52;18.20;82.60
68433;DHT22;55412;51.350;17.056;2022-08-21T14:47:55;18.30;82.30
68433;DHT22;55412;51.350;17.056;2022-08-21T14:50:22;18.30;82.40
68433;DHT22;55412;51.350;17.056;2022-08-21T14:52:49;18.30;82.30
68433;DHT22;55412;51.350;17.056;2022-08-21T14:55:17;18.30;82.60
68433;DHT22;55412;51.350;17.056;2022-08-21T14:57:49;18.30;82.40
68433;DHT22;55412;51.350;17.056;2022-08-21T15:00:19;18.30;82.60
68433;DHT22;55412;51.350;17.056;2022-08-21T15:02:48;18.40;82.60
68433;DHT22;55412;51.350;17.056;2022-08-21T15:05:16;18.40;82.60
68433;DHT22;55412;51.350;17.056;2022-08-21T15:07:43;18.40;82.20
68433;DHT22;55412;51.350;17.056;2022-08-21T15:10:10;18.40;82.00
68433;DHT22;55412;51.350;17.056;2022-08-21T15:12:37;18.30;82.00
68433;DHT22;55412;51.350;17.056;2022-08-21T15:15:08;18.40;82.30
68433;DHT22;55412;51.350;17.056;2022-08-21T15:17:35;18.30;82.20
68433;DHT22;55412;51.350;17.056;2022-08-21T15:20:02;18.30;82.30
68433;DHT22;55412;51.350;17.056;2022-08-21T15:22:30;18.30;82.30
68433;DHT22;55412;51.350;17.056;2022-08-21T15:24:56;18.30;82.40
68433;DHT22;55412;51.350;17.056;2022-08-21T15:27:22;18.20;82.60
68433;DHT22;55412;51.350;17.056;2022-08-21T15:29:48;18.30;82.60
68433;DHT22;55412;51.350;17.056;2022-08-21T15:32:24;18.30;82.90
68433;DHT22;55412;51.350;17.056;2022-08-21T15:34:52;18.30;82.70
68433;DHT22;55412;51.350;17.056;2022-08-21T15:37:20;18.30;82.90
68433;DHT22;55412;51.350;17.056;2022-08-21T15:39:46;18.30;82.70
68433;DHT22;55412;51.350;17.056;2022-08-21T15:42:12;18.30;82.90
68433;DHT22;55412;51.350;17.056;2022-08-21T15:44:40;18.20;83.20
68433;DHT22;55412;51.350;17.056;2022-08-21T15:47:11;18.20;83.30
68433;DHT22;55412;51.350;17.056;2022-08-21T15:49:41;18.20;83.30
68433;DHT22;55412;51.350;17.056;2022-08-21T15:52:14;18.20;83.60
68433;DHT22;55412;51.350;17.056;2022-08-21T15:54:42;18.30;83.40
68433;DHT22;55412;51.350;17.056;2022-08-21T15:57:14;18.30;83.60
68433;DHT22;55412;51.350;17.056;2022-08-21T15:59:47;18.30;83.70
68433;DHT22;55412;51.350;17.056;2022-08-21T16:02:39;18.30;83.80
68433;DHT22;55412;51.350;17.056;2022-08-21T16:05:05;18.30;84.00
68433;DHT22;55412;51.350;17.056;2022-08-21T16:07:31;18.30;84.10
68433;DHT22;55412;51.350;17.056;2022-08-21T16:09:57;18.30;83.90
68433;DHT22;55412;51.350;17.056;2022-08-21T16:12:28;18.30;84.10
68433;DHT22;55412;51.350;17.056;2022-08-21T16:14:58;18.30;84.20
68433;DHT22;55412;51.350;17.056;2022-08-21T16:17:29;18.30;84.20
68433;DHT22;55412;51.350;17.056;2022-08-21T16:19:58;18.30;84.30
68433;DHT22;55412;51.350;17.056;2022-08-21T16:22:25;18.30;84.30
68433;DHT22;55412;51.350;17.056;2022-08-21T16:24:52;18.30;84.10
68433;DHT22;55412;51.350;17.056;2022-08-21T16:27:18;18.30;84.00
68433;DHT22;55412;51.350;17.056;2022-08-21T16:29:45;18.30;84.00
68433;DHT22;55412;51.350;17.056;2022-08-21T16:32:12;18.30;84.00
68433;DHT22;55412;51.350;17.056;2022-08-21T16:34:44;18.30;84.00
68433;DHT22;55412;51.350;17.056;2022-08-21T16:37:12;18.30;84.10
68433;DHT22;55412;51.350;17.056;2022-08-21T16:39:39;18.30;84.10
68433;DHT22;55412;51.350;17.056;2022-08-21T16:42:06;18.30;84.10
68433;DHT22;55412;51.350;17.056;2022-08-21T16:44:33;18.30;84.00
68433;DHT22;55412;51.350;17.056;2022-08-21T16:47:00;18.30;83.80
68433;DHT22;55412;51.350;17.056;2022-08-21T16:49:27;18.30;84.00
68433;DHT22;55412;51.350;17.056;2022-08-21T16:51:53;18.30;84.20
68433;DHT22;55412;51.350;17.056;2022-08-21T16:54:19;18.30;84.00